Terminal Aerodrome Forecast
Issued by NWS

Home | Current Version | Previous Version | Text Only | Print | Product List | Glossary On
Versions: 1 2 3 4 5 6 7 8 9 10 11 12 13 14 15 16 17 18 19
000
FTUS43 KSGF 022300
TAFJLN
TAF
KJLN 022320Z 0300/0324 35006KT P6SM VCSH BKN025
     FM030600 02005KT P6SM SCT012 OVC025
      TEMPO 0309/0313 4SM BR OVC009
     FM031500 02005KT P6SM BKN030
     FM031900 02006KT P6SM BKN040=

USA.gov is the U.S. government's official web portal to all federal, state and local government web resources and services.